Latest Weather Observations for Mount Gellibrand

IDV60801

Issued at 12:34 pm EDT Monday 27 February 2017 (issued every 30 minutes, with the page automatically refreshed every 10 minutes)

About weather observations | Map of weather stations | Latest weather observations for VIC | Other Formats
Station Details ID: 090035 Name: MOUNT GELLIBRAND Lat: -38.23 Lon: 143.79 Height: 261.0 m
Data from the previous 72 hours. | See also: Recent months at Mount Gellibrand
Date/Time
EDT
Temp
°C
App
Temp
°C
Dew
Point
°C
Rel
Hum
%
Delta-T
°C
Wind Press
QNH
hPa
Press
MSL
hPa
Rain since
9am
mm
Dir  Spd
km/h
Gust
km/h
Spd
kts
Gust
kts
27/12:30pm 28.9 26.4 9.6 30 10.9 NW 13 20 7 11 1022.3 1021.6 0.0
27/12:00pm 27.6 25.8 10.8 35 9.6 N 11 20 6 11 1022.5 1021.8 0.0
27/11:30am 26.2 22.9 11.5 40 8.5 NNW 20 28 11 15 1022.7 1022.0 0.0
27/11:00am 24.3 21.7 11.9 45 7.1 N 17 24 9 13 1022.9 1022.2 0.0
27/10:30am 23.4 22.3 11.8 48 6.6 NNE 9 17 5 9 1023.0 1022.3 0.0
27/10:00am 21.6 21.4 13.5 60 4.7 ENE 7 11 4 6 1023.0 1022.3 0.0
27/09:30am 19.1 18.5 14.6 75 2.6 ENE 11 17 6 9 1023.0 1022.3 0.0
27/09:00am 17.1 15.2 15.3 89 1.1 ENE 19 24 10 13 1023.0 1022.3 0.0
27/08:30am 15.6 13.0 14.8 95 0.5 ENE 22 32 12 17 1022.7 1022.0 0.0
27/08:00am 14.9 12.4 14.1 95 0.5 E 20 22 11 12 1022.4 1021.7 0.0
27/07:30am 14.7 11.7 13.7 94 0.6 E 22 24 12 13 1022.1 1021.3 0.0
27/07:00am 15.0 11.6 13.7 92 0.7 E 24 26 13 14 1021.7 1020.9 0.0
27/06:30am 15.2 11.8 13.7 91 0.9 E 24 26 13 14 1021.4 1020.6 0.0
27/06:00am 15.4 12.0 13.8 90 0.9 E 24 26 13 14 1021.2 1020.4 0.0
27/05:30am 15.1 12.4 13.6 91 0.8 E 20 20 11 11 1021.1 1020.3 0.0
27/05:00am 15.3 12.7 13.7 90 0.9 E 20 22 11 12 1020.9 1020.1 0.0
27/04:30am 15.2 12.2 13.6 90 0.9 E 22 26 12 14 1020.8 1020.0 0.0
27/04:00am 15.2 11.7 13.4 89 1.0 E 24 28 13 15 1020.8 1020.0 0.0
27/03:30am 15.4 11.4 13.1 86 1.3 E 26 28 14 15 1020.9 1020.1 0.0
27/03:00am 15.4 11.8 13.1 86 1.3 E 24 30 13 16 1021.1 1020.3 0.0
27/02:30am 15.4 11.4 12.9 85 1.4 ESE 26 28 14 15 1021.0 1020.2 0.0
27/02:00am 15.3 11.9 12.6 84 1.5 ESE 22 26 12 14 1021.2 1020.4 0.0
27/01:30am 15.8 11.8 12.9 83 1.6 ESE 26 30 14 16 1021.0 1020.2 0.0
27/01:00am 15.9 11.4 12.6 81 1.8 ESE 28 32 15 17 1021.1 1020.3 0.0
27/12:30am 16.1 12.0 12.8 81 1.9 ESE 26 30 14 16 1021.2 1020.4 0.0
27/12:00am 16.6 12.3 13.3 81 1.9 ESE 28 33 15 18 1021.1 1020.3 0.0
 
Date/Time
EDT
Temp
°C
App
Temp
°C
Dew
Point
°C
Rel
Hum
%
Delta-T
°C
Wind Press
QNH
hPa
Press
MSL
hPa
Rain since
9am
mm
Dir  Spd
km/h
Gust
km/h
Spd
kts
Gust
kts
26/11:30pm 16.9 12.8 13.8 82 1.8 ESE 28 33 15 18 1021.3 1020.5 0.0
26/11:00pm 17.1 12.7 14.0 82 1.8 ESE 30 33 16 18 1021.3 1020.5 0.0
26/10:30pm 17.5 13.1 14.0 80 2.0 ESE 30 35 16 19 1021.3 1020.5 0.0
26/10:00pm 18.0 13.9 13.9 77 2.4 ESE 28 35 15 19 1021.2 1020.4 0.0
26/09:30pm 17.8 14.0 13.5 76 2.5 SE 26 30 14 16 1020.9 1020.1 0.0
26/09:00pm 18.1 13.9 13.4 74 2.7 SE 28 32 15 17 1020.5 1019.7 0.0
26/08:30pm 18.6 15.1 13.5 72 2.9 SE 24 28 13 15 1020.4 1019.6 0.0
26/08:00pm 19.6 16.0 13.1 66 3.7 SE 24 28 13 15 1020.1 1019.3 0.0
26/07:30pm 20.3 15.5 12.8 62 4.3 SE 30 37 16 20 1020.0 1019.2 0.0
26/07:00pm 21.3 16.0 12.4 57 5.1 ESE 32 35 17 19 1019.9 1019.1 0.0
26/06:30pm 22.0 16.6 12.3 54 5.5 SE 32 37 17 20 1019.6 1018.9 0.0
26/06:00pm 22.9 17.5 12.2 51 6.1 SE 32 39 17 21 1019.5 1018.8 0.0
26/05:30pm 23.9 19.3 12.2 48 6.7 ESE 28 37 15 20 1019.3 1018.6 0.0
26/05:00pm 25.0 21.3 12.6 46 7.2 ESE 24 33 13 18 1019.4 1018.7 0.0
26/04:30pm 25.3 21.7 12.9 46 7.3 ESE 24 35 13 19 1019.4 1018.7 0.0
26/04:00pm 25.4 21.9 13.3 47 7.1 ESE 24 33 13 18 1019.6 1018.9 0.0
26/03:30pm 25.2 21.6 13.1 47 7.1 ESE 24 32 13 17 1020.0 1019.2 0.0
26/03:00pm 25.0 22.0 12.6 46 7.2 E 20 33 11 18 1020.4 1019.6 0.0
26/02:30pm 24.8 21.4 12.4 46 7.2 E 22 32 12 17 1020.6 1019.8 0.0
26/02:00pm 25.0 22.2 12.6 46 7.2 ESE 19 32 10 17 1020.8 1020.0 0.0
26/01:30pm 24.0 21.5 12.3 48 6.8 E 17 30 9 16 1021.1 1020.3 0.0
26/01:00pm 23.6 21.1 12.3 49 6.5 E 17 24 9 13 1021.3 1020.5 0.0
26/12:30pm 23.6 20.8 12.6 50 6.4 ENE 19 28 10 15 1021.5 1020.7 0.0
26/12:00pm 22.6 19.7 12.3 52 5.9 ENE 19 32 10 17 1021.6 1020.8 0.0
26/11:30am 21.5 18.5 12.4 56 5.2 E 20 30 11 16 1021.8 1021.0 0.0
26/11:00am 20.2 16.2 11.9 59 4.7 ESE 24 30 13 16 1022.0 1021.2 0.0
26/10:30am 19.6 15.3 12.1 62 4.2 ESE 26 32 14 17 1022.0 1021.2 0.0
26/10:00am 18.4 14.1 11.9 66 3.6 ESE 26 33 14 18 1022.1 1021.3 0.0
26/09:30am 17.7 13.4 11.9 69 3.2 E 26 32 14 17 1021.9 1021.1 0.0
26/09:00am 17.0 12.7 12.1 73 2.7 ESE 26 33 14 18 1021.9 1021.1 0.0
26/08:30am 16.1 12.2 12.1 77 2.2 ESE 24 30 13 16 1021.9 1021.1 0.0
26/08:00am 15.2 11.3 12.2 82 1.6 ESE 24 30 13 16 1021.8 1021.0 0.0
26/07:30am 14.8 9.7 11.9 83 1.6 ESE 30 39 16 21 1021.5 1020.7 0.0
26/07:00am 15.0 9.5 12.0 82 1.6 ESE 32 44 17 24 1021.1 1020.3 0.0
26/06:30am 15.1 9.5 12.1 82 1.7 ESE 33 43 18 23 1020.9 1020.1 0.0
26/06:00am 15.1 9.1 12.2 83 1.6 ESE 35 44 19 24 1020.8 1020.0 0.0
26/05:30am 15.0 9.5 12.5 85 1.4 ESE 33 43 18 23 1020.4 1019.6 0.0
26/05:00am 15.0 9.6 12.9 87 1.2 ESE 33 44 18 24 1020.5 1019.7 0.0
26/04:30am 14.8 10.0 13.0 89 1.0 ESE 30 43 16 23 1020.5 1019.7 0.0
26/04:00am 14.6 8.7 13.5 93 0.6 ESE 37 50 20 27 1020.3 1019.5 0.0
26/03:30am 14.2 9.3 13.6 96 0.3 ESE 32 41 17 22 1021.0 1020.2 0.0
26/03:00am 14.1 9.2 13.6 97 0.3 ESE 32 39 17 21 1021.1 1020.3 0.0
26/02:30am 13.9 9.3 13.4 97 0.3 SE 30 35 16 19 1021.7 1020.9 0.0
26/02:00am 13.9 9.7 13.4 97 0.3 SE 28 32 15 17 1021.9 1021.1 0.0
26/01:30am 13.8 9.9 13.2 96 0.3 ESE 26 32 14 17 1022.0 1021.2 0.0
26/01:00am 13.9 10.8 13.3 96 0.3 SE 22 26 12 14 1022.4 1021.7 0.0
26/12:30am 14.0 10.9 13.4 96 0.3 SE 22 26 12 14 1022.7 1022.0 0.0
26/12:00am 13.8 10.2 13.0 95 0.4 SE 24 28 13 15 1022.9 1022.2 0.0
 
Date/Time
EDT
Temp
°C
App
Temp
°C
Dew
Point
°C
Rel
Hum
%
Delta-T
°C
Wind Press
QNH
hPa
Press
MSL
hPa
Rain since
9am
mm
Dir  Spd
km/h
Gust
km/h
Spd
kts
Gust
kts
25/11:30pm 13.4 9.2 12.5 94 0.5 SE 26 30 14 16 1022.9 1022.2 0.0
25/11:00pm 12.9 8.4 11.3 90 0.9 SE 26 32 14 17 1022.7 1022.0 0.0
25/10:30pm 12.2 8.0 9.8 85 1.2 SSE 22 24 12 13 1023.1 1022.4 0.0
25/10:00pm 12.1 8.1 9.1 82 1.5 SSE 20 20 11 11 1023.3 1022.6 0.0
25/09:30pm 12.4 8.6 9.2 81 1.6 SSE 19 22 10 12 1023.4 1022.7 0.0
25/09:00pm 12.4 8.4 8.9 79 1.8 SSE 20 24 11 13 1023.2 1022.5 0.0
25/08:30pm 12.7 8.1 8.2 74 2.3 SSE 22 26 12 14 1023.0 1022.3 0.0
25/08:00pm 13.7 7.9 7.9 68 2.9 SE 28 33 15 18 1022.8 1022.1 0.0
25/07:30pm 14.8 9.2 7.1 60 3.8 SE 26 33 14 18 1022.7 1022.0 0.0
25/07:00pm 15.9 10.4 7.4 57 4.3 SE 26 32 14 17 1022.6 1021.9 0.0
25/06:30pm 16.8 10.9 7.4 54 4.8 SE 28 35 15 19 1022.5 1021.8 0.0
25/06:00pm 17.8 12.2 7.2 50 5.4 SSE 26 39 14 21 1022.4 1021.7 0.0
25/05:30pm 17.9 11.9 7.0 49 5.5 SSE 28 37 15 20 1022.5 1021.8 0.0
25/05:00pm 18.1 11.6 6.6 47 5.8 SSE 30 37 16 20 1022.6 1021.9 0.0
25/04:30pm 19.1 14.6 5.9 42 6.6 SE 19 28 10 15 1022.6 1021.9 0.0
25/04:00pm 19.0 15.0 4.7 39 6.9 SSE 15 24 8 13 1022.7 1022.0 0.0
25/03:30pm 19.1 13.9 3.3 35 7.5 S 20 33 11 18 1023.0 1022.3 0.0
25/03:00pm 18.6 13.5 2.9 35 7.3 SSE 19 30 10 16 1023.2 1022.5 0.0
25/02:30pm 18.3 14.3 4.8 41 6.6 S 15 28 8 15 1023.6 1022.9 0.0
25/02:00pm 18.1 13.2 5.0 42 6.4 SSE 20 33 11 18 1023.9 1023.1 0.0
25/01:30pm 18.1 13.7 5.0 42 6.4 SE 17 28 9 15 1023.9 1023.1 0.0
25/01:00pm 17.2 12.3 5.2 45 5.8 SE 20 32 11 17 1024.5 1023.7 0.0
25/12:30pm 16.8 12.0 5.4 47 5.6 SSE 20 37 11 20 1024.8 1024.0 0.0
25/12:00pm 16.9 12.0 5.2 46 5.6 SSE 20 32 11 17 1025.0 1024.2 0.0
25/11:30am 15.7 10.7 4.4 47 5.3 SSE 20 30 11 16 1025.2 1024.4 0.0
25/11:00am 15.7 10.7 3.5 44 5.6 SSE 19 32 10 17 1025.6 1024.8 0.0
25/10:30am 15.0 9.5 3.8 47 5.2 SSE 22 33 12 18 1025.9 1025.2 0.0
25/10:00am 14.8 9.5 5.1 52 4.6 SSE 22 32 12 17 1025.9 1025.2 0.0
25/09:30am 13.3 9.6 6.2 62 3.4 SSE 15 20 8 11 1025.9 1025.2 0.0
25/09:00am 12.7 8.7 6.5 66 3.0 SSE 17 20 9 11 1025.8 1025.1 0.0
25/08:30am 11.8 8.0 7.5 75 2.1 S 17 22 9 12 1025.7 1025.0 0.0
25/08:00am 10.9 7.9 7.8 81 1.5 S 13 17 7 9 1025.6 1024.8 0.0
25/07:30am 10.3 6.8 7.2 81 1.5 S 15 17 8 9 1025.4 1024.6 0.0
25/07:00am 9.8 6.4 7.6 86 1.1 SSW 15 17 8 9 1025.2 1024.4 0.0
25/06:30am 9.7 6.2 7.3 85 1.2 S 15 17 8 9 1025.1 1024.3 0.0
25/06:00am 10.1 6.7 7.7 85 1.2 SSE 15 17 8 9 1024.6 1023.8 0.0
25/05:30am 10.0 6.5 7.3 83 1.3 SSE 15 19 8 10 1024.6 1023.8 0.0
25/05:00am 11.1 6.9 7.4 78 1.8 SSE 19 22 10 12 1024.5 1023.7 0.0
25/04:30am 10.6 7.6 7.5 81 1.5 S 13 17 7 9 1024.7 1023.9 0.0
25/04:00am 10.8 7.8 7.7 81 1.5 S 13 17 7 9 1025.0 1024.2 0.0
25/03:30am 10.5 6.8 7.9 84 1.3 S 17 19 9 10 1025.1 1024.3 0.0
25/03:00am 10.3 6.2 7.9 85 1.2 S 19 20 10 11 1025.2 1024.4 0.0
25/02:30am 10.5 6.5 8.4 87 1.0 S 19 20 10 11 1025.5 1024.7 0.0
25/02:00am 10.8 6.4 8.9 88 0.9 S 22 26 12 14 1025.5 1024.7 0.0
25/01:30am 11.1 7.0 8.8 86 1.2 SSW 20 24 11 13 1025.7 1025.0 0.0
25/01:00am 11.7 7.8 9.6 87 1.1 S 20 24 11 13 1025.8 1025.1 0.0
25/12:30am 11.0 8.0 9.1 88 1.0 SSW 15 17 8 9 1025.9 1025.2 0.0
25/12:00am 11.4 8.4 9.1 86 1.2 S 15 17 8 9 1026.0 1025.3 0.0
 
Date/Time
EDT
Temp
°C
App
Temp
°C
Dew
Point
°C
Rel
Hum
%
Delta-T
°C
Wind Press
QNH
hPa
Press
MSL
hPa
Rain since
9am
mm
Dir  Spd
km/h
Gust
km/h
Spd
kts
Gust
kts
24/11:30pm 11.8 8.8 9.2 84 1.3 S 15 17 8 9 1026.1 1025.4 0.0
24/11:00pm 11.8 8.6 8.5 80 1.6 S 15 17 8 9 1026.2 1025.5 0.0
24/10:30pm 12.2 9.1 8.7 79 1.8 S 15 17 8 9 1026.2 1025.5 0.0
24/10:00pm 12.9 9.4 8.6 75 2.2 S 17 19 9 10 1026.3 1025.6 0.0
24/09:30pm 14.0 9.9 8.8 71 2.7 SSW 20 28 11 15 1026.3 1025.6 0.0
24/09:00pm 14.5 11.2 8.0 65 3.3 S 15 22 8 12 1026.0 1025.3 0.0
24/08:30pm 14.5 11.5 7.5 63 3.5 S 13 17 7 9 1025.8 1025.1 0.0
24/08:00pm 14.2 9.9 7.0 62 3.5 S 19 22 10 12 1025.6 1024.8 0.0
24/07:30pm 15.3 9.6 6.8 57 4.2 S 26 32 14 17 1025.3 1024.5 0.0
24/07:00pm 15.7 10.0 6.7 55 4.4 S 26 32 14 17 1025.2 1024.4 0.0
24/06:30pm 16.8 11.5 6.9 52 5.0 SSW 24 35 13 19 1025.3 1024.5 0.0
24/06:00pm 17.0 12.6 7.4 53 4.8 S 20 26 11 14 1025.2 1024.4 0.0
24/05:30pm 16.9 11.9 8.1 56 4.5 SSW 24 32 13 17 1024.9 1024.1 0.0
24/05:00pm 16.4 12.0 7.6 56 4.4 S 20 30 11 16 1025.0 1024.2 0.0
24/04:30pm 16.9 12.9 8.3 57 4.4 S 19 24 10 13 1025.0 1024.2 0.0
24/04:00pm 16.3 11.0 8.3 59 4.1 SSW 26 33 14 18 1025.1 1024.3 0.0
24/03:30pm 16.8 11.1 8.2 57 4.4 S 28 35 15 19 1025.2 1024.4 0.0
24/03:00pm 17.0 11.8 7.4 53 4.8 SSW 24 32 13 17 1025.3 1024.5 0.0
24/02:30pm 16.8 11.8 8.2 57 4.4 S 24 33 13 18 1025.5 1024.7 0.0
24/02:00pm 16.7 12.9 7.6 55 4.6 SSW 17 22 9 12 1025.7 1025.0 0.0
24/01:30pm 17.1 12.5 8.0 55 4.7 SSW 22 32 12 17 1025.7 1025.0 0.0
24/01:00pm 16.5 12.3 8.2 58 4.2 SSW 20 32 11 17 1025.8 1025.1 0.0

Other Formats:

Comma delimited format used in spreadsheet applications
http://www.bom.gov.au/fwo/IDV60801/IDV60801.95845.axf

JavaScript Object Notation format (JSON) in row-major order
http://www.bom.gov.au/fwo/IDV60801/IDV60801.95845.json